Time;durP1;ratioP1;P1;durP2;ratioP2;P2;SDS_P1;SDS_P2;PMS_P1;PMS_P2;Temp;Humidity;BMP_temperature;BMP_pressure;BME280_temperature;BME280_humidity;BME280_pressure;Samples;Min_cycle;Max_cycle;Signal;HPM_P1;HPM_P2
2022/05/28 00:01:35;;;;;;;1.48;1.10;;;;;;;;;;4919636;29;20514;-74
2022/05/28 00:04:04;;;;;;;5.35;1.20;;;;;;;;;;4919453;29;20078;-74
2022/05/28 00:06:32;;;;;;;2.10;0.95;;;;;;;;;;4919476;29;20036;-74
2022/05/28 00:08:58;;;;;;;2.95;1.10;;;;;;;;;;4920415;29;20074;-74
2022/05/28 00:11:26;;;;;;;1.42;1.23;;;;;;;;;;4919260;29;20115;-74
2022/05/28 00:13:53;;;;;;;2.13;1.10;;;;;;;;;;4919625;29;20080;-74
2022/05/28 00:16:20;;;;;;;1.63;1.10;;;;;;;;;;4922587;29;20051;-74
2022/05/28 00:18:47;;;;;;;1.52;1.25;;;;;;;;;;4938667;29;20496;-74
2022/05/28 00:21:13;;;;;;;1.38;1.02;;;;;;;;;;4938750;29;20035;-74
2022/05/28 00:23:40;;;;;;;2.58;1.25;;;;;;;;;;4938827;29;20130;-74
2022/05/28 00:26:06;;;;;;;2.08;1.30;;;;;;;;;;4938446;29;20066;-74
2022/05/28 00:28:33;;;;;;;1.23;1.13;;;;;;;;;;4938982;29;20047;-74
2022/05/28 00:31:00;;;;;;;1.70;1.20;;;;;;;;;;4938237;29;20042;-74
2022/05/28 00:33:26;;;;;;;3.47;1.35;;;;;;;;;;4938259;29;20107;-74
2022/05/28 00:35:53;;;;;;;3.08;1.30;;;;;;;;;;4938170;29;20435;-74
2022/05/28 00:38:19;;;;;;;3.47;1.40;;;;;;;;;;4921730;29;20404;-74
2022/05/28 00:40:49;;;;;;;2.15;1.27;;;;;;;;;;4938287;29;20131;-74
2022/05/28 00:43:16;;;;;;;3.00;1.50;;;;;;;;;;4937766;29;20504;-74
2022/05/28 00:45:42;;;;;;;1.60;1.25;;;;;;;;;;4938247;29;20054;-74
2022/05/28 00:48:10;;;;;;;3.05;1.48;;;;;;;;;;4938515;29;20546;-74
2022/05/28 00:50:37;;;;;;;2.65;1.40;;;;;;;;;;4938276;29;20039;-74
2022/05/28 00:53:04;;;;;;;1.20;1.10;;;;;;;;;;4937676;29;20070;-74
2022/05/28 00:55:34;;;;;;;2.53;1.17;;;;;;;;;;4937917;29;20040;-74
2022/05/28 00:58:02;;;;;;;2.33;1.37;;;;;;;;;;4938693;29;20131;-74
2022/05/28 01:00:28;;;;;;;1.55;0.90;;;;;;;;;;4938174;29;20052;-74
2022/05/28 01:02:58;;;;;;;2.75;1.60;;;;;;;;;;4937674;29;20505;-74
2022/05/28 01:05:34;;;;;;;2.58;1.48;;;;;;;;;;4938071;29;20051;-74
2022/05/28 01:08:13;;;;;;;1.60;1.30;;;;;;;;;;4938540;29;20126;-74
2022/05/28 01:10:59;;;;;;;2.20;1.08;;;;;;;;;;4937903;29;20075;-74
2022/05/28 01:13:35;;;;;;;1.58;1.35;;;;;;;;;;4938282;29;20044;-74
2022/05/28 01:16:04;;;;;;;1.85;1.40;;;;;;;;;;4937641;29;20511;-74
2022/05/28 01:18:54;;;;;;;2.45;1.27;;;;;;;;;;4937985;29;20064;-74
2022/05/28 01:21:31;;;;;;;2.80;1.25;;;;;;;;;;4885706;29;20549;-74
2022/05/28 01:24:09;;;;;;;1.50;1.40;;;;;;;;;;4937507;29;20051;-74
2022/05/28 01:26:44;;;;;;;1.13;1.00;;;;;;;;;;4937611;29;20491;-74
2022/05/28 01:29:14;;;;;;;3.40;1.20;;;;;;;;;;4937898;29;20048;-74
2022/05/28 01:31:41;;;;;;;5.43;1.58;;;;;;;;;;4937723;29;20039;-74
2022/05/28 01:34:08;;;;;;;1.95;1.25;;;;;;;;;;4937265;29;20071;-74
2022/05/28 01:36:35;;;;;;;1.88;1.23;;;;;;;;;;4937564;29;20048;-74
2022/05/28 01:39:01;;;;;;;1.80;1.30;;;;;;;;;;4937952;29;20054;-74
2022/05/28 01:41:31;;;;;;;3.20;1.35;;;;;;;;;;4937780;29;20036;-74
2022/05/28 01:43:58;;;;;;;1.40;1.30;;;;;;;;;;4937645;29;20131;-74
2022/05/28 01:46:27;;;;;;;3.50;1.58;;;;;;;;;;4937267;29;20102;-74
2022/05/28 01:48:55;;;;;;;1.52;1.10;;;;;;;;;;4937683;29;20047;-74
2022/05/28 01:51:22;;;;;;;2.55;1.30;;;;;;;;;;4937488;29;20171;-74
2022/05/28 01:54:08;;;;;;;3.28;1.50;;;;;;;;;;4938020;29;20048;-74
2022/05/28 01:56:37;;;;;;;4.20;2.08;;;;;;;;;;4937320;29;20555;-74
2022/05/28 01:59:04;;;;;;;1.88;1.42;;;;;;;;;;4938034;29;20059;-74
2022/05/28 02:01:30;;;;;;;2.47;1.52;;;;;;;;;;4937093;29;20491;-74
2022/05/28 02:04:00;;;;;;;3.15;1.30;;;;;;;;;;4936943;29;20044;-74
2022/05/28 02:06:26;;;;;;;5.15;1.30;;;;;;;;;;4940568;29;20043;-74
2022/05/28 02:08:55;;;;;;;2.22;1.33;;;;;;;;;;4941300;29;20051;-74
2022/05/28 02:11:26;;;;;;;1.80;1.40;;;;;;;;;;4940918;29;20040;-74
2022/05/28 02:14:08;;;;;;;2.22;1.20;;;;;;;;;;4941438;29;20071;-74
2022/05/28 02:16:49;;;;;;;2.47;1.38;;;;;;;;;;4941083;29;20503;-74
2022/05/28 02:19:22;;;;;;;1.88;1.20;;;;;;;;;;4940494;29;20052;-74
2022/05/28 02:21:53;;;;;;;1.92;1.30;;;;;;;;;;4940882;29;20044;-74
2022/05/28 02:24:24;;;;;;;4.68;1.40;;;;;;;;;;4941035;29;20047;-74
2022/05/28 02:26:50;;;;;;;;;;;;;;;;;;4941137;29;20491;-74
2022/05/28 02:29:16;;;;;;;3.83;1.30;;;;;;;;;;4940927;29;19910;-74
2022/05/28 02:31:44;;;;;;;3.67;1.30;;;;;;;;;;4940526;29;20090;-74
2022/05/28 02:34:11;;;;;;;3.70;1.33;;;;;;;;;;4940188;29;20051;-74
2022/05/28 02:36:37;;;;;;;1.80;1.20;;;;;;;;;;4940403;29;20052;-74
2022/05/28 02:39:03;;;;;;;1.52;1.20;;;;;;;;;;4941012;29;20374;-74
2022/05/28 02:41:29;;;;;;;1.48;1.20;;;;;;;;;;4940128;29;20050;-74
2022/05/28 02:43:56;;;;;;;12.32;1.67;;;;;;;;;;4940363;29;20134;-74
2022/05/28 02:46:22;;;;;;;2.42;1.40;;;;;;;;;;4940266;29;20039;-74
2022/05/28 02:48:48;;;;;;;1.50;1.20;;;;;;;;;;4940124;29;20581;-74
2022/05/28 02:51:16;;;;;;;1.45;1.33;;;;;;;;;;4940235;29;20035;-74
2022/05/28 02:53:42;;;;;;;1.80;1.23;;;;;;;;;;4940265;29;20058;-74
2022/05/28 02:56:09;;;;;;;2.08;1.20;;;;;;;;;;4939797;29;20044;-74
2022/05/28 02:58:35;;;;;;;3.72;1.20;;;;;;;;;;4923830;29;20043;-74
2022/05/28 03:01:03;;;;;;;2.88;1.60;;;;;;;;;;4939677;29;20046;-74
2022/05/28 03:03:29;;;;;;;2.75;1.40;;;;;;;;;;4939608;29;20050;-74
2022/05/28 03:05:56;;;;;;;1.83;1.33;;;;;;;;;;4939686;29;20045;-74
2022/05/28 03:08:22;;;;;;;3.20;1.45;;;;;;;;;;4939833;29;20601;-74
2022/05/28 03:10:48;;;;;;;1.38;1.00;;;;;;;;;;4940059;29;20036;-74
2022/05/28 03:13:14;;;;;;;1.48;1.30;;;;;;;;;;4939850;29;20046;-74
2022/05/28 03:15:40;;;;;;;2.85;1.52;;;;;;;;;;4939595;29;20207;-74
2022/05/28 03:18:06;;;;;;;3.22;1.20;;;;;;;;;;4939185;29;20048;-74
2022/05/28 03:20:33;;;;;;;4.50;1.50;;;;;;;;;;4939945;29;20044;-74
2022/05/28 03:22:59;;;;;;;1.98;1.35;;;;;;;;;;4939987;29;20116;-74
2022/05/28 03:25:26;;;;;;;2.85;1.70;;;;;;;;;;4939594;29;20126;-74
2022/05/28 03:27:52;;;;;;;2.40;1.23;;;;;;;;;;4940195;29;20055;-74
2022/05/28 03:30:18;;;;;;;2.55;1.30;;;;;;;;;;4939529;29;20077;-74
2022/05/28 03:32:44;;;;;;;3.00;1.20;;;;;;;;;;4939349;29;20074;-74
2022/05/28 03:35:10;;;;;;;4.82;1.33;;;;;;;;;;4939897;29;20412;-74
2022/05/28 03:37:51;;;;;;;4.53;1.40;;;;;;;;;;4940069;29;20059;-74
2022/05/28 03:40:25;;;;;;;1.90;1.55;;;;;;;;;;4938725;29;20043;-74
2022/05/28 03:42:52;;;;;;;1.65;1.20;;;;;;;;;;4929159;29;20046;-74
2022/05/28 03:45:23;;;;;;;1.30;1.20;;;;;;;;;;4928891;29;20510;-74
2022/05/28 03:48:01;;;;;;;1.80;1.30;;;;;;;;;;4928148;29;20126;-74
2022/05/28 03:50:35;;;;;;;2.25;1.90;;;;;;;;;;4932731;29;20040;-74
2022/05/28 03:56:07;;;;;;;1.60;1.20;;;;;;;;;;4937257;29;20058;-72
2022/05/28 03:59:05;;;;;;;1.98;1.20;;;;;;;;;;4939260;29;20384;-72
2022/05/28 04:01:39;;;;;;;1.80;1.40;;;;;;;;;;4938442;29;20039;-72
2022/05/28 04:04:06;;;;;;;1.63;1.42;;;;;;;;;;4938784;29;20070;-72
2022/05/28 04:06:43;;;;;;;1.17;1.10;;;;;;;;;;4938672;29;20048;-72
2022/05/28 04:09:41;;;;;;;1.55;1.15;;;;;;;;;;4931944;29;20492;-72
2022/05/28 04:12:14;;;;;;;2.78;1.20;;;;;;;;;;4918893;29;20040;-72
2022/05/28 04:14:42;;;;;;;2.97;1.40;;;;;;;;;;4919939;29;20042;-72
2022/05/28 04:17:08;;;;;;;1.55;1.30;;;;;;;;;;4919633;29;20127;-72
2022/05/28 04:19:34;;;;;;;1.90;1.30;;;;;;;;;;4919001;29;20136;-72
2022/05/28 04:25:14;;;;;;;2.10;1.30;;;;;;;;;;4842343;29;20541;-72
2022/05/28 04:31:04;;;;;;;1.70;1.55;;;;;;;;;;4918160;29;20035;-71
2022/05/28 04:33:58;;;;;;;1.42;1.33;;;;;;;;;;4919350;29;20055;-72
2022/05/28 04:36:33;;;;;;;3.13;1.63;;;;;;;;;;4901815;29;20138;-71
2022/05/28 04:38:59;;;;;;;1.80;1.35;;;;;;;;;;4919378;29;20048;-70
2022/05/28 04:41:25;;;;;;;3.38;1.48;;;;;;;;;;4919105;29;20040;-71
2022/05/28 04:43:51;;;;;;;1.85;1.10;;;;;;;;;;4919236;29;20098;-70
2022/05/28 04:46:17;;;;;;;1.27;1.17;;;;;;;;;;4919089;29;20044;-70
2022/05/28 04:48:44;;;;;;;2.50;1.45;;;;;;;;;;4919029;29;20048;-71
2022/05/28 04:51:10;;;;;;;3.45;1.30;;;;;;;;;;4919100;29;20051;-71
2022/05/28 04:53:36;;;;;;;2.30;1.52;;;;;;;;;;4918811;29;20103;-71
2022/05/28 04:56:03;;;;;;;2.15;1.50;;;;;;;;;;4919132;29;20048;-71
2022/05/28 04:58:29;;;;;;;1.58;1.40;;;;;;;;;;4919303;29;20087;-70
2022/05/28 05:00:55;;;;;;;2.53;1.17;;;;;;;;;;4918952;29;20066;-71
2022/05/28 05:03:21;;;;;;;1.95;1.38;;;;;;;;;;4918462;29;20122;-71
2022/05/28 05:05:48;;;;;;;1.63;1.40;;;;;;;;;;4918548;29;20044;-71
2022/05/28 05:08:14;;;;;;;2.40;1.52;;;;;;;;;;4918839;29;20056;-70
2022/05/28 05:10:40;;;;;;;5.28;1.30;;;;;;;;;;4918733;29;20072;-71
2022/05/28 05:13:06;;;;;;;2.65;1.30;;;;;;;;;;4921774;29;20522;-71
2022/05/28 05:15:32;;;;;;;1.45;1.05;;;;;;;;;;4935794;29;20035;-71
2022/05/28 05:17:59;;;;;;;2.03;1.40;;;;;;;;;;4935409;29;20480;-71
2022/05/28 05:20:25;;;;;;;3.55;1.05;;;;;;;;;;4936361;29;20483;-71
2022/05/28 05:22:55;;;;;;;1.70;1.13;;;;;;;;;;4937824;29;20043;-71
2022/05/28 05:25:21;;;;;;;4.00;1.55;;;;;;;;;;4937815;29;20589;-71
2022/05/28 05:27:47;;;;;;;2.80;1.08;;;;;;;;;;4937917;29;20054;-70
2022/05/28 05:30:14;;;;;;;1.30;1.05;;;;;;;;;;4937548;29;20126;-71
2022/05/28 05:32:40;;;;;;;1.77;1.10;;;;;;;;;;4937232;29;20490;-71
2022/05/28 05:35:07;;;;;;;1.48;0.90;;;;;;;;;;4937375;29;20067;-71
2022/05/28 05:37:33;;;;;;;1.52;1.10;;;;;;;;;;4937341;29;20117;-71
2022/05/28 05:39:59;;;;;;;2.67;1.10;;;;;;;;;;4937733;29;20043;-71
2022/05/28 05:42:26;;;;;;;2.10;1.23;;;;;;;;;;4937867;29;20166;-71
2022/05/28 05:44:53;;;;;;;1.58;1.02;;;;;;;;;;4937634;29;20067;-71
2022/05/28 05:47:20;;;;;;;1.75;1.10;;;;;;;;;;4938049;29;20043;-71
2022/05/28 05:49:46;;;;;;;1.95;1.20;;;;;;;;;;4937093;29;20365;-71
2022/05/28 05:52:12;;;;;;;1.02;0.90;;;;;;;;;;4937216;29;20051;-71
2022/05/28 05:54:38;;;;;;;1.25;1.15;;;;;;;;;;4920422;29;20419;-71
2022/05/28 05:57:05;;;;;;;5.03;1.00;;;;;;;;;;4937109;29;20373;-71
2022/05/28 05:59:31;;;;;;;3.60;1.20;;;;;;;;;;4936908;29;20101;-71
2022/05/28 06:01:58;;;;;;;3.00;1.27;;;;;;;;;;4937188;29;20071;-71
2022/05/28 06:04:24;;;;;;;2.15;1.02;;;;;;;;;;4937290;29;20044;-71
2022/05/28 06:06:50;;;;;;;1.02;0.80;;;;;;;;;;4937511;29;20075;-71
2022/05/28 06:09:16;;;;;;;1.30;1.00;;;;;;;;;;4937973;29;20050;-71
2022/05/28 06:11:42;;;;;;;1.73;1.30;;;;;;;;;;4937158;29;20052;-71
2022/05/28 06:14:09;;;;;;;1.23;0.90;;;;;;;;;;4937874;29;20050;-71
2022/05/28 06:16:35;;;;;;;1.40;1.25;;;;;;;;;;4937414;29;20396;-71
2022/05/28 06:19:01;;;;;;;1.65;1.10;;;;;;;;;;4937271;29;20064;-71
2022/05/28 06:21:27;;;;;;;1.77;1.08;;;;;;;;;;4936692;29;20039;-71
2022/05/28 06:23:54;;;;;;;1.10;0.90;;;;;;;;;;4933531;29;20043;-71
2022/05/28 06:26:20;;;;;;;2.92;1.10;;;;;;;;;;4924736;29;20051;-71
2022/05/28 06:28:46;;;;;;;1.13;1.02;;;;;;;;;;4930774;29;20047;-71
2022/05/28 06:31:14;;;;;;;1.42;1.10;;;;;;;;;;4926969;29;20048;-71
2022/05/28 06:33:40;;;;;;;7.05;1.73;;;;;;;;;;4926937;29;20064;-72
2022/05/28 06:36:07;;;;;;;2.92;1.10;;;;;;;;;;4919945;29;20100;-72
2022/05/28 06:38:34;;;;;;;1.90;1.10;;;;;;;;;;4920059;29;20130;-72
2022/05/28 06:41:00;;;;;;;1.02;0.90;;;;;;;;;;4931476;29;20047;-72
2022/05/28 06:43:27;;;;;;;1.20;1.10;;;;;;;;;;4934061;29;20086;-72
2022/05/28 06:45:53;;;;;;;2.42;0.88;;;;;;;;;;4934652;29;20118;-71
2022/05/28 06:48:19;;;;;;;2.05;1.15;;;;;;;;;;4935972;29;20055;-72
2022/05/28 06:51:04;;;;;;;0.80;0.80;;;;;;;;;;4935245;29;20407;-72
2022/05/28 06:53:32;;;;;;;1.73;0.90;;;;;;;;;;4936479;29;20040;-72
2022/05/28 06:55:58;;;;;;;2.65;1.10;;;;;;;;;;4938998;29;20135;-71
2022/05/28 06:58:24;;;;;;;2.20;1.33;;;;;;;;;;4932078;29;20411;-71
2022/05/28 07:00:50;;;;;;;2.03;0.90;;;;;;;;;;4925193;29;20106;-72
2022/05/28 07:03:18;;;;;;;1.17;0.93;;;;;;;;;;4926232;29;20491;-72
2022/05/28 07:05:44;;;;;;;1.13;0.90;;;;;;;;;;4925242;29;20039;-71
2022/05/28 07:08:11;;;;;;;1.30;1.05;;;;;;;;;;4938702;29;20047;-71
2022/05/28 07:10:40;;;;;;;1.33;1.23;;;;;;;;;;4938610;29;20047;-71
2022/05/28 07:13:06;;;;;;;4.27;1.10;;;;;;;;;;4925895;29;20067;-71
2022/05/28 07:15:33;;;;;;;2.97;1.20;;;;;;;;;;4939193;29;20070;-71
2022/05/28 07:17:59;;;;;;;1.63;1.02;;;;;;;;;;4938785;29;20048;-72
2022/05/28 07:20:25;;;;;;;1.77;1.10;;;;;;;;;;4938514;29;20048;-71
2022/05/28 07:22:51;;;;;;;1.60;1.00;;;;;;;;;;4939484;29;20043;-71
2022/05/28 07:25:17;;;;;;;0.93;0.93;;;;;;;;;;4936119;29;20039;-71
2022/05/28 07:27:43;;;;;;;2.25;1.00;;;;;;;;;;4935280;29;20131;-71
2022/05/28 07:30:10;;;;;;;1.10;1.00;;;;;;;;;;4927711;29;20032;-71
2022/05/28 07:32:36;;;;;;;1.30;1.20;;;;;;;;;;4929263;29;20047;-71
2022/05/28 07:35:02;;;;;;;1.85;1.20;;;;;;;;;;4937876;29;20043;-71
2022/05/28 07:37:30;;;;;;;3.28;0.90;;;;;;;;;;4938686;29;20059;-71
2022/05/28 07:39:56;;;;;;;3.33;0.93;;;;;;;;;;4939166;29;20039;-72
2022/05/28 07:42:22;;;;;;;2.58;1.05;;;;;;;;;;4939298;29;20440;-72
2022/05/28 07:44:49;;;;;;;1.33;0.88;;;;;;;;;;4928849;29;20036;-72
2022/05/28 07:47:15;;;;;;;1.10;1.00;;;;;;;;;;4920272;29;20055;-72
2022/05/28 07:49:42;;;;;;;2.00;1.38;;;;;;;;;;4924937;29;20044;-71
2022/05/28 07:52:08;;;;;;;1.50;1.40;;;;;;;;;;4938720;29;20170;-71
2022/05/28 07:54:34;;;;;;;1.80;0.95;;;;;;;;;;4920192;29;20044;-71
2022/05/28 07:57:00;;;;;;;1.25;1.10;;;;;;;;;;4924881;29;20047;-70
2022/05/28 07:59:29;;;;;;;3.33;1.20;;;;;;;;;;4911772;29;20052;-70
2022/05/28 08:01:55;;;;;;;2.45;1.10;;;;;;;;;;4935507;29;20048;-71
2022/05/28 08:04:22;;;;;;;1.25;1.10;;;;;;;;;;4920400;29;20032;-71
2022/05/28 08:06:48;;;;;;;2.25;1.25;;;;;;;;;;4929856;29;20126;-71
2022/05/28 08:09:14;;;;;;;2.78;1.10;;;;;;;;;;4923440;29;20044;-71
2022/05/28 08:11:40;;;;;;;1.55;1.20;;;;;;;;;;4939088;29;20044;-71
2022/05/28 08:14:07;;;;;;;1.02;0.93;;;;;;;;;;4938952;29;20127;-71
2022/05/28 08:16:33;;;;;;;1.70;1.05;;;;;;;;;;4933347;29;20559;-71
2022/05/28 08:19:00;;;;;;;7.63;1.60;;;;;;;;;;4929227;29;20054;-71
2022/05/28 08:24:11;;;;;;;5.80;1.38;;;;;;;;;;4926789;29;20046;-71
2022/05/28 08:26:38;;;;;;;1.63;1.10;;;;;;;;;;4923141;29;20047;-72
2022/05/28 08:29:05;;;;;;;1.30;1.20;;;;;;;;;;4902390;29;20052;-71
2022/05/28 08:31:31;;;;;;;2.22;1.33;;;;;;;;;;4932277;29;20036;-71
2022/05/28 08:33:57;;;;;;;1.10;1.00;;;;;;;;;;4919234;29;20035;-71
2022/05/28 08:36:24;;;;;;;2.00;1.30;;;;;;;;;;4925337;29;20047;-71
2022/05/28 08:39:12;;;;;;;3.35;1.30;;;;;;;;;;4927402;29;20067;-73
2022/05/28 08:41:50;;;;;;;2.20;1.20;;;;;;;;;;4909081;29;20039;-72
2022/05/28 08:44:19;;;;;;;3.45;1.40;;;;;;;;;;4928914;29;20074;-72
2022/05/28 08:46:48;;;;;;;3.20;1.63;;;;;;;;;;4918581;29;20391;-72
2022/05/28 08:49:24;;;;;;;1.40;1.00;;;;;;;;;;4921777;29;20039;-72
2022/05/28 08:51:52;;;;;;;1.73;1.10;;;;;;;;;;4914012;29;20054;-72
2022/05/28 08:54:26;;;;;;;1.75;1.30;;;;;;;;;;4919667;29;20040;-72
2022/05/28 08:56:57;;;;;;;2.35;1.35;;;;;;;;;;4934892;29;20070;-74
2022/05/28 08:59:23;;;;;;;;;;;;;;;;;;4912755;29;20051;-71
2022/05/28 09:01:50;;;;;;;1.45;1.15;;;;;;;;;;4929495;29;20365;-72
2022/05/28 09:04:21;;;;;;;2.55;1.10;;;;;;;;;;4917813;29;20455;-72
2022/05/28 09:06:57;;;;;;;6.80;1.30;;;;;;;;;;4929822;29;20507;-70
2022/05/28 09:09:34;;;;;;;3.03;1.30;;;;;;;;;;4926583;29;20052;-70
2022/05/28 09:12:02;;;;;;;1.75;1.25;;;;;;;;;;4927407;29;20043;-71
2022/05/28 09:14:33;;;;;;;3.80;1.50;;;;;;;;;;4930746;29;20055;-71
2022/05/28 09:17:07;;;;;;;1.75;1.20;;;;;;;;;;4928757;29;20039;-71
2022/05/28 09:19:35;;;;;;;3.70;1.15;;;;;;;;;;4936378;29;20067;-71
2022/05/28 09:22:01;;;;;;;2.65;1.30;;;;;;;;;;4914619;29;20503;-73
2022/05/28 09:24:29;;;;;;;3.50;1.23;;;;;;;;;;4921998;29;20071;-73
2022/05/28 09:26:59;;;;;;;1.52;1.20;;;;;;;;;;4930221;29;20039;-74
2022/05/28 09:29:28;;;;;;;4.28;1.42;;;;;;;;;;4937076;29;20051;-73
2022/05/28 09:32:06;;;;;;;2.55;1.40;;;;;;;;;;4932033;29;20040;-74
2022/05/28 09:34:51;;;;;;;1.83;1.13;;;;;;;;;;4936358;29;20112;-72
2022/05/28 09:37:26;;;;;;;3.13;1.25;;;;;;;;;;4928427;29;20143;-73
2022/05/28 09:39:52;;;;;;;1.90;1.02;;;;;;;;;;4922133;29;20078;-72
2022/05/28 09:42:44;;;;;;;3.92;1.10;;;;;;;;;;4936337;29;20043;-75
2022/05/28 09:45:13;;;;;;;2.50;0.98;;;;;;;;;;4892075;29;20044;-78
2022/05/28 09:47:43;;;;;;;3.30;1.40;;;;;;;;;;4936375;29;20526;-78
2022/05/28 09:50:17;;;;;;;3.03;1.42;;;;;;;;;;4936873;29;20044;-77
2022/05/28 09:55:28;;;;;;;1.63;1.20;;;;;;;;;;4923062;29;20542;-74
2022/05/28 09:57:59;;;;;;;2.05;1.00;;;;;;;;;;4923155;29;20058;-73
2022/05/28 10:00:25;;;;;;;4.95;1.00;;;;;;;;;;4934045;29;20046;-74
2022/05/28 10:05:58;;;;;;;1.10;1.00;;;;;;;;;;4929055;29;20205;-73
2022/05/28 10:08:33;;;;;;;1.73;1.08;;;;;;;;;;4920079;29;20035;-74
2022/05/28 10:11:03;;;;;;;2.60;1.00;;;;;;;;;;4919887;29;20083;-74
2022/05/28 10:13:31;;;;;;;4.60;1.10;;;;;;;;;;4919936;29;20048;-74
2022/05/28 10:16:01;;;;;;;1.63;1.10;;;;;;;;;;4921365;29;20070;-74
2022/05/28 10:18:36;;;;;;;2.57;0.97;;;;;;;;;;4935817;29;20094;-77
2022/05/28 10:21:07;;;;;;;1.23;0.90;;;;;;;;;;4927429;29;20260;-75
2022/05/28 10:23:35;;;;;;;1.33;0.90;;;;;;;;;;4918283;29;20044;-77
2022/05/28 10:26:02;;;;;;;1.67;1.15;;;;;;;;;;4918941;29;20067;-76
2022/05/28 10:28:29;;;;;;;2.42;0.90;;;;;;;;;;4922015;29;20052;-76
2022/05/28 10:30:56;;;;;;;4.15;1.38;;;;;;;;;;4922752;29;20063;-76
2022/05/28 10:33:24;;;;;;;0.93;0.90;;;;;;;;;;4921433;29;20042;-76
2022/05/28 10:35:51;;;;;;;6.28;1.10;;;;;;;;;;4921663;29;20535;-76
2022/05/28 10:38:22;;;;;;;3.38;1.10;;;;;;;;;;4924435;29;20044;-76
2022/05/28 10:40:52;;;;;;;1.25;1.08;;;;;;;;;;4929473;29;20087;-76
2022/05/28 10:43:29;;;;;;;1.90;1.05;;;;;;;;;;4921457;29;20068;-76
2022/05/28 10:46:16;;;;;;;4.53;1.20;;;;;;;;;;4940588;29;20098;-74
2022/05/28 10:49:01;;;;;;;4.00;1.08;;;;;;;;;;4939253;29;20067;-78
2022/05/28 10:51:46;;;;;;;0.95;0.88;;;;;;;;;;4922312;29;20048;-74
2022/05/28 10:54:12;;;;;;;1.52;0.80;;;;;;;;;;4928452;29;20036;-75
2022/05/28 10:56:38;;;;;;;1.65;0.90;;;;;;;;;;4935597;29;20049;-75
2022/05/28 10:59:10;;;;;;;1.75;1.23;;;;;;;;;;4936945;29;20044;-75
2022/05/28 11:01:40;;;;;;;1.88;1.23;;;;;;;;;;4939327;29;20040;-75
2022/05/28 11:04:09;;;;;;;2.75;0.98;;;;;;;;;;4939651;29;20150;-74
2022/05/28 11:07:00;;;;;;;1.75;1.00;;;;;;;;;;4939934;29;20107;-75
2022/05/28 11:09:37;;;;;;;1.02;0.93;;;;;;;;;;4939515;29;20046;-75
2022/05/28 11:12:22;;;;;;;1.45;1.00;;;;;;;;;;4940019;29;20047;-75
2022/05/28 11:14:51;;;;;;;5.13;1.17;;;;;;;;;;4939836;29;20036;-75
2022/05/28 11:17:23;;;;;;;2.25;1.20;;;;;;;;;;4939701;29;20052;-75
2022/05/28 11:20:07;;;;;;;1.52;1.02;;;;;;;;;;4939872;29;20086;-75
2022/05/28 11:22:39;;;;;;;2.08;0.90;;;;;;;;;;4939976;29;20043;-75
2022/05/28 11:25:12;;;;;;;1.67;0.93;;;;;;;;;;4939965;29;20127;-75
2022/05/28 11:27:38;;;;;;;2.70;0.90;;;;;;;;;;4940084;29;20056;-75
2022/05/28 11:30:18;;;;;;;1.10;1.00;;;;;;;;;;4939361;29;20044;-75
2022/05/28 11:32:47;;;;;;;0.95;0.82;;;;;;;;;;4931032;29;20052;-75
2022/05/28 11:35:17;;;;;;;1.50;1.30;;;;;;;;;;4932361;29;20127;-74
2022/05/28 11:37:52;;;;;;;1.45;0.98;;;;;;;;;;4938633;29;20138;-74
2022/05/28 11:40:29;;;;;;;1.67;1.17;;;;;;;;;;4938366;29;20060;-73
2022/05/28 11:43:00;;;;;;;0.95;0.88;;;;;;;;;;4937698;29;20411;-75
2022/05/28 11:45:26;;;;;;;;;;;;;;;;;;4938256;29;20044;-75
2022/05/28 11:47:58;;;;;;;2.88;1.00;;;;;;;;;;4938426;29;19915;-75
2022/05/28 11:53:34;;;;;;;4.03;1.15;;;;;;;;;;4937350;29;20042;-75
2022/05/28 11:56:08;;;;;;;1.23;1.10;;;;;;;;;;4937122;29;20070;-74
2022/05/28 11:58:37;;;;;;;1.10;1.00;;;;;;;;;;4938396;29;20059;-75
2022/05/28 12:01:09;;;;;;;2.58;1.10;;;;;;;;;;4937516;29;20036;-75
2022/05/28 12:03:35;;;;;;;1.40;0.80;;;;;;;;;;4932804;29;20044;-75
2022/05/28 12:06:07;;;;;;;2.78;1.10;;;;;;;;;;4937600;29;20035;-74
2022/05/28 12:08:39;;;;;;;3.58;1.23;;;;;;;;;;4937218;29;20101;-75
2022/05/28 12:11:21;;;;;;;0.93;0.90;;;;;;;;;;4936750;29;20047;-76
2022/05/28 12:13:49;;;;;;;3.70;1.02;;;;;;;;;;4936527;29;20040;-76
2022/05/28 12:16:18;;;;;;;1.55;1.15;;;;;;;;;;4936622;29;20047;-75
2022/05/28 12:19:01;;;;;;;0.98;0.90;;;;;;;;;;4937176;29;20083;-75
2022/05/28 12:21:35;;;;;;;3.40;1.30;;;;;;;;;;4928065;29;20047;-76
2022/05/28 12:24:24;;;;;;;4.18;1.10;;;;;;;;;;4936739;29;20044;-75
2022/05/28 12:29:38;;;;;;;1.65;1.20;;;;;;;;;;4936811;29;20089;-75
2022/05/28 12:32:10;;;;;;;3.17;1.38;;;;;;;;;;4929652;29;20406;-74
2022/05/28 12:34:39;;;;;;;3.10;1.10;;;;;;;;;;4928254;29;20047;-74
2022/05/28 12:37:11;;;;;;;2.90;1.33;;;;;;;;;;4925018;29;20103;-74
2022/05/28 12:39:43;;;;;;;1.88;1.17;;;;;;;;;;4923623;29;20048;-73
2022/05/28 12:42:20;;;;;;;4.47;1.20;;;;;;;;;;4929346;29;20036;-73
2022/05/28 12:44:50;;;;;;;2.50;1.08;;;;;;;;;;4926245;29;20530;-73
2022/05/28 12:47:37;;;;;;;1.60;1.20;;;;;;;;;;4909279;29;20063;-73
2022/05/28 12:50:03;;;;;;;1.23;1.10;;;;;;;;;;4928594;29;20058;-73
2022/05/28 12:52:32;;;;;;;0.90;0.90;;;;;;;;;;4942314;29;20038;-73
2022/05/28 12:55:04;;;;;;;1.45;1.20;;;;;;;;;;4928467;29;20043;-73
2022/05/28 12:57:34;;;;;;;1.45;0.90;;;;;;;;;;4917270;29;20072;-73
2022/05/28 13:00:03;;;;;;;4.15;1.20;;;;;;;;;;4932192;29;20052;-73
2022/05/28 13:02:33;;;;;;;1.40;1.02;;;;;;;;;;4930273;29;20063;-73
2022/05/28 13:05:02;;;;;;;3.63;1.60;;;;;;;;;;4934499;29;20042;-73
2022/05/28 13:07:35;;;;;;;2.10;1.30;;;;;;;;;;4919034;29;20125;-73
2022/05/28 13:10:06;;;;;;;3.50;1.13;;;;;;;;;;4925414;29;20044;-73
2022/05/28 13:12:46;;;;;;;2.35;1.20;;;;;;;;;;4931866;29;20095;-73
2022/05/28 13:15:22;;;;;;;1.35;1.25;;;;;;;;;;4924096;29;20040;-73
2022/05/28 13:18:06;;;;;;;6.80;1.25;;;;;;;;;;4921046;29;20417;-73
2022/05/28 13:20:51;;;;;;;2.55;1.45;;;;;;;;;;4906038;29;20077;-73
2022/05/28 13:23:20;;;;;;;2.13;0.93;;;;;;;;;;4907255;29;20096;-73
2022/05/28 13:25:55;;;;;;;2.55;1.00;;;;;;;;;;4905897;29;20045;-73
2022/05/28 13:28:40;;;;;;;1.83;1.10;;;;;;;;;;4907095;29;20126;-73
2022/05/28 13:31:10;;;;;;;4.22;1.17;;;;;;;;;;4911498;29;20519;-73
2022/05/28 13:33:37;;;;;;;4.93;1.07;;;;;;;;;;4909750;29;20044;-73
2022/05/28 13:36:06;;;;;;;2.50;1.33;;;;;;;;;;4917106;29;20272;-73
2022/05/28 13:38:37;;;;;;;1.13;1.02;;;;;;;;;;4916671;29;20134;-73
2022/05/28 13:41:12;;;;;;;1.35;1.17;;;;;;;;;;4916437;29;20056;-73
2022/05/28 13:43:41;;;;;;;1.55;1.05;;;;;;;;;;4912494;29;20123;-73
2022/05/28 13:46:11;;;;;;;2.17;1.20;;;;;;;;;;4914500;29;20040;-73
2022/05/28 13:48:46;;;;;;;1.53;1.30;;;;;;;;;;4912796;29;20090;-70
2022/05/28 13:51:13;;;;;;;2.45;1.15;;;;;;;;;;4906748;29;20040;-74
2022/05/28 13:53:41;;;;;;;2.78;1.50;;;;;;;;;;4899269;29;20066;-72
2022/05/28 13:56:08;;;;;;;1.48;1.00;;;;;;;;;;4896719;29;20045;-72
2022/05/28 13:58:38;;;;;;;1.73;1.30;;;;;;;;;;4898845;29;20107;-72
2022/05/28 14:01:05;;;;;;;2.75;1.00;;;;;;;;;;4914323;29;20559;-72
2022/05/28 14:03:34;;;;;;;1.67;1.08;;;;;;;;;;4921482;29;20131;-72
2022/05/28 14:06:01;;;;;;;2.10;1.20;;;;;;;;;;4921779;29;20487;-72
2022/05/28 14:08:38;;;;;;;2.20;1.10;;;;;;;;;;4921451;29;20051;-72
2022/05/28 14:11:25;;;;;;;2.35;1.17;;;;;;;;;;4921597;29;20399;-72
2022/05/28 14:13:55;;;;;;;6.25;1.25;;;;;;;;;;4919738;29;20115;-72
2022/05/28 14:16:30;;;;;;;2.58;1.10;;;;;;;;;;4896344;29;20038;-72
2022/05/28 14:18:58;;;;;;;2.33;1.20;;;;;;;;;;4928722;29;20055;-72
2022/05/28 14:21:32;;;;;;;2.92;1.10;;;;;;;;;;4940075;29;20114;-72
2022/05/28 14:23:59;;;;;;;2.92;1.40;;;;;;;;;;4931734;29;20503;-72
2022/05/28 14:26:26;;;;;;;6.07;1.27;;;;;;;;;;4939857;29;20514;-72
2022/05/28 14:28:52;;;;;;;2.55;1.10;;;;;;;;;;4927055;29;20503;-72
2022/05/28 14:31:20;;;;;;;1.35;1.23;;;;;;;;;;4937140;29;20071;-72
2022/05/28 14:33:52;;;;;;;1.95;1.10;;;;;;;;;;4928983;29;20132;-73
2022/05/28 14:36:33;;;;;;;2.25;1.10;;;;;;;;;;4922988;29;20040;-72
2022/05/28 14:39:09;;;;;;;1.40;1.00;;;;;;;;;;4917469;29;20072;-72
2022/05/28 14:41:35;;;;;;;2.47;0.82;;;;;;;;;;4920620;29;20040;-72
2022/05/28 14:44:02;;;;;;;1.63;1.33;;;;;;;;;;4922864;29;20047;-72
2022/05/28 14:46:47;;;;;;;1.15;0.90;;;;;;;;;;4925830;29;20084;-71
2022/05/28 14:49:22;;;;;;;2.05;1.10;;;;;;;;;;4930232;29;20119;-72
2022/05/28 14:51:48;;;;;;;2.00;1.00;;;;;;;;;;4931833;29;20501;-72
2022/05/28 14:54:19;;;;;;;4.13;1.10;;;;;;;;;;4929122;29;20506;-73
2022/05/28 14:56:45;;;;;;;;;;;;;;;;;;4920479;29;20423;-72
2022/05/28 14:59:20;;;;;;;2.95;1.60;;;;;;;;;;4930319;29;19910;-72
2022/05/28 15:01:46;;;;;;;2.58;1.30;;;;;;;;;;4928414;29;20071;-72
2022/05/28 15:04:16;;;;;;;1.15;0.88;;;;;;;;;;4924546;29;20048;-72
2022/05/28 15:06:47;;;;;;;1.50;0.90;;;;;;;;;;4930866;29;20138;-71
2022/05/28 15:09:22;;;;;;;3.78;0.85;;;;;;;;;;4923439;29;20050;-72
2022/05/28 15:11:49;;;;;;;4.57;1.10;;;;;;;;;;4928275;29;20054;-72
2022/05/28 15:14:25;;;;;;;1.75;1.02;;;;;;;;;;4926269;29;20123;-73
2022/05/28 15:16:52;;;;;;;3.65;1.45;;;;;;;;;;4924665;29;20503;-73
2022/05/28 15:19:18;;;;;;;1.95;1.10;;;;;;;;;;4926845;29;20064;-73
2022/05/28 15:21:44;;;;;;;3.22;1.30;;;;;;;;;;4918696;29;20040;-73
2022/05/28 15:24:10;;;;;;;1.95;1.00;;;;;;;;;;4919234;29;20051;-74